Flight Track Log - Related Links

Times and Time Zones

All times are in EDT time to prevent confusion due to time zone crossing. See the AAL1480 flight status page for this flight to view local times or setup timezone preferences in your user account.

Time Position Orientation Groundspeed Altitude Reporting Facility
EDT Latitude Longitude Course Direction KTS MPH feet Rate Location/Type
Tue 11:38:05 AM 26.5417 -81.8697 339° North 233 268 5,000  Level Miami Center
Tue 11:39:05 AM 26.6131 -81.8567 North 206 237 7,600 2,550 Climbing Miami Center
Tue 11:40:00 AM 27.0766 -81.7573 340° North  Level FlightAware Approximate
Tue 11:40:05 AM 26.6911 -81.8272 19° North 249 287 10,100  Level Miami Center
Tue 11:41:00 AM 27.1817 -81.7913 347° North  Level FlightAware Approximate
Tue 11:41:05 AM 26.7794 -81.8078 11° North 294 338 12,000  Level Miami Center
Tue 11:42:00 AM 27.2856 -81.8295 339° North  Level FlightAware Approximate
Tue 11:42:05 AM 26.8764 -81.7817 14° North 342 394 14,100  Level Miami Center
Tue 11:43:05 AM 26.9669 -81.7600 12° North 372 428 16,400 2,100 Climbing Miami Center
Tue 11:44:05 AM 27.0669 -81.7617 359° North 365 420 18,300 2,000 Climbing Miami Center
Tue 11:45:05 AM 27.1847 -81.7994 344° North 379 436 20,400 2,000 Climbing Miami Center
Tue 11:46:05 AM 27.2900 -81.8342 344° North 392 451 22,300 1,600 Climbing Miami Center
Tue 11:47:05 AM 27.3994 -81.8717 343° North 399 459 23,600 1,304 Climbing Miami Center
Tue 11:49:09 AM 27.6167 -81.9467 343° North 422 486 26,300 1,533 Climbing Jacksonville Center
Tue 11:50:09 AM 27.7358 -81.9922 341° North 438 504 28,300 1,600 Climbing Jacksonville Center
Tue 11:51:09 AM 27.8694 -82.0122 352° North 438 504 29,500 1,200 Climbing Jacksonville Center
Tue 11:52:09 AM 27.9925 -82.0231 356° North 438 504 30,700 1,150 Climbing Jacksonville Center
Tue 11:53:09 AM 28.0972 -82.0833 333° Northwest 422 486 31,800 600 Climbing Jacksonville Center
Tue 11:54:09 AM 28.1978 -82.1483 330° Northwest 417 480 31,900 50 Climbing Jacksonville Center
Tue 11:55:09 AM 28.2964 -82.2114 331° Northwest 412 474 31,900  Level Jacksonville Center
Tue 11:56:09 AM 28.3947 -82.2744 331° Northwest 412 474 31,900  Level Jacksonville Center
Tue 11:57:09 AM 28.4950 -82.3375 331° Northwest 412 474 31,900  Level Jacksonville Center
Tue 11:58:09 AM 28.5978 -82.4031 331° Northwest 412 474 31,900  Level Jacksonville Center
Tue 11:59:09 AM 28.6961 -82.4667 330° Northwest 412 474 31,900  Level Jacksonville Center
Tue 12:00:09 PM 28.7964 -82.5300 331° Northwest 412 474 31,900  Level Jacksonville Center
Tue 12:01:09 PM 28.8967 -82.5939 331° Northwest 407 468 31,900  Level Jacksonville Center
Tue 12:02:09 PM 28.9950 -82.6575 331° Northwest 407 468 31,900  Level Jacksonville Center
Tue 12:03:09 PM 29.0931 -82.7214 330° Northwest 407 468 31,900 50 Level Jacksonville Center
Tue 12:04:09 PM 29.1933 -82.7856 331° Northwest 407 468 32,000  Climbing Jacksonville Center
Tue 12:05:09 PM 29.2936 -82.8522 330° Northwest 407 468 31,900 -50 Descending Jacksonville Center
Tue 12:06:09 PM 29.3939 -82.9139 332° Northwest 407 468 31,900  Level Jacksonville Center
Tue 12:07:09 PM 29.4919 -82.9808 329° Northwest 407 468 31,900  Level Jacksonville Center
Tue 12:08:09 PM 29.5878 -83.0431 331° Northwest 418 481 31,900  Level Jacksonville Center
Tue 12:09:09 PM 29.6964 -83.0958 337° Northwest 423 487 31,900  Level Jacksonville Center
Tue 12:10:09 PM 29.8069 -83.1464 338° Northwest 416 479 31,900  Level Jacksonville Center
Tue 12:11:09 PM 29.9092 -83.1944 338° Northwest 417 480 31,900  Level Jacksonville Center
Tue 12:12:09 PM 30.0239 -83.2475 338° Northwest 417 480 31,900  Level Jacksonville Center
Tue 12:13:09 PM 30.1303 -83.2961 338° Northwest 417 480 31,900  Level Jacksonville Center
Tue 12:14:09 PM 30.2406 -83.3469 338° Northwest 417 480 31,900  Level Jacksonville Center
Tue 12:15:09 PM 30.3492 -83.3956 339° North 417 480 31,900  Level Jacksonville Center
Tue 12:16:09 PM 30.4575 -83.4492 337° Northwest 417 480 31,900  Level Jacksonville Center
Tue 12:17:09 PM 30.5658 -83.5006 338° Northwest 417 480 31,900  Level Jacksonville Center
Tue 12:18:09 PM 30.6719 -83.5494 338° Northwest 417 480 31,900 50 Level Jacksonville Center
Tue 12:19:09 PM 30.7781 -83.6036 336° Northwest 417 480 32,000 50 Climbing Jacksonville Center
Tue 12:20:09 PM 30.8864 -83.6528 339° North 417 480 32,000  Level Jacksonville Center
Tue 12:22:05 PM 31.1078 -83.7600 337° Northwest 420 483 32,000  Level Atlanta Center
Tue 12:23:05 PM 31.2164 -83.8131 337° Northwest 420 483 32,000  Level Atlanta Center
Tue 12:24:05 PM 31.3228 -83.8639 338° Northwest 415 478 32,000  Level Atlanta Center
Tue 12:25:05 PM 31.4294 -83.9147 338° Northwest 415 478 32,000  Level Atlanta Center
Tue 12:26:05 PM 31.5378 -83.9633 339° North 415 478 32,000  Level Atlanta Center
Tue 12:27:05 PM 31.6547 -83.9900 349° North 415 478 32,000  Level Atlanta Center
Tue 12:28:05 PM 31.7592 -84.0144 349° North 415 478 32,000  Level Atlanta Center
Tue 12:29:05 PM 31.8739 -84.0389 350° North 420 483 32,000  Level Atlanta Center
Tue 12:30:05 PM 31.9928 -84.0633 350° North 420 483 32,000  Level Atlanta Center
Tue 12:31:05 PM 32.1078 -84.0903 349° North 420 483 32,000  Level Atlanta Center
Tue 12:32:05 PM 32.2244 -84.1150 350° North 425 489 32,000  Level Atlanta Center
Tue 12:33:05 PM 32.3436 -84.1422 349° North 425 489 32,000  Level Atlanta Center
Tue 12:34:05 PM 32.4603 -84.1692 349° North 430 495 32,000  Level Atlanta Center
Tue 12:35:05 PM 32.5753 -84.1967 349° North 430 495 32,000  Level Atlanta Center
Tue 12:36:05 PM 32.6942 -84.2214 350° North 430 495 32,000  Level Atlanta Center
Tue 12:37:05 PM 32.8214 -84.2539 348° North 430 495 32,000  Level Atlanta Center
Tue 12:38:05 PM 32.9403 -84.2814 349° North 430 495 32,000  Level Atlanta Center
Tue 12:39:05 PM 33.0550 -84.3064 350° North 430 495 32,000  Level Atlanta Center
Tue 12:40:05 PM 33.1719 -84.3342 349° North 430 495 32,000  Level Atlanta Center
Tue 12:41:05 PM 33.2908 -84.3594 350° North 430 495 32,000  Level Atlanta Center
Tue 12:42:05 PM 33.3931 -84.3822 349° North 430 495 32,000  Level Atlanta Center
Tue 12:43:05 PM 33.5119 -84.4100 349° North 425 489 32,000  Level Atlanta Center
Tue 12:44:05 PM 33.6392 -84.4406 349° North 425 489 32,000  Level Atlanta Center
Tue 12:45:05 PM 33.7517 -84.4686 348° North 425 489 32,000  Level Atlanta Center
Tue 12:46:05 PM 33.8581 -84.4942 349° North 433 498 32,000  Level Atlanta Center
Tue 12:47:05 PM 33.9811 -84.5222 349° North 427 491 32,000  Level Atlanta Center
Tue 12:48:05 PM 34.0939 -84.5481 349° North 427 491 32,000  Level Atlanta Center
Tue 12:49:05 PM 34.2272 -84.5814 348° North 434 499 32,000  Level Atlanta Center
Tue 12:50:05 PM 34.3314 -84.5997 352° North 427 491 32,000  Level Atlanta Center
Tue 12:51:05 PM 34.4544 -84.6081 357° North 427 491 32,000  Level Atlanta Center
Tue 12:52:05 PM 34.5756 -84.6189 356° North 427 491 32,000  Level Atlanta Center
Tue 12:53:05 PM 34.6925 -84.6325 355° North 420 483 32,000  Level Atlanta Center
Tue 12:54:05 PM 34.8133 -84.6408 357° North 425 489 32,000  Level Atlanta Center
Tue 12:55:05 PM 34.9322 -84.6519 356° North 425 489 32,000  Level Atlanta Center
Tue 12:56:05 PM 35.0553 -84.6631 356° North 425 489 32,000  Level Atlanta Center
Tue 12:57:05 PM 35.1764 -84.6739 356° North 425 489 32,000  Level Atlanta Center
Tue 12:58:05 PM 35.2972 -84.6825 357° North 430 495 32,000  Level Atlanta Center
Tue 12:59:05 PM 35.4183 -84.6936 356° North 430 495 32,000  Level Atlanta Center
Tue 01:00:05 PM 35.5392 -84.7050 356° North 430 495 32,000  Level Atlanta Center
Tue 01:01:05 PM 35.6600 -84.7136 357° North 430 495 32,000  Level Atlanta Center
Tue 01:02:05 PM 35.7811 -84.7222 357° North 430 495 32,000  Level Atlanta Center
Tue 01:03:05 PM 35.9000 -84.7333 356° North 430 495 32,000  Level Atlanta Center
Tue 01:05:34 PM 36.2089 -84.7606 356° North 438 504 32,000  Level Indianapolis Center
Tue 01:06:36 PM 36.3303 -84.7717 356° North 439 505 32,000  Level Indianapolis Center
Tue 01:07:38 PM 36.4544 -84.7703 North 446 513 32,000  Level Indianapolis Center
Tue 01:08:40 PM 36.5775 -84.7361 13° North 451 519 32,000 242 Level Indianapolis Center
Tue 01:09:42 PM 36.7242 -84.6922 13° North 451 519 32,500 484 Climbing Indianapolis Center
Tue 01:10:44 PM 36.8464 -84.6553 14° North 451 519 33,000 242 Climbing Indianapolis Center
Tue 01:11:46 PM 36.9686 -84.6194 13° North 451 519 33,000  Level Indianapolis Center
Tue 01:12:48 PM 37.0875 -84.5839 13° North 451 519 33,000  Level Indianapolis Center
Tue 01:13:50 PM 37.2086 -84.5478 13° North 451 519 33,000  Level Indianapolis Center
Tue 01:14:52 PM 37.3533 -84.5036 14° North 451 519 33,000  Level Indianapolis Center
Tue 01:15:54 PM 37.4761 -84.4672 13° North 452 520 33,000 -48 Level Indianapolis Center
Tue 01:16:56 PM 37.5986 -84.4333 12° North 451 519 32,900  Descending Indianapolis Center
Tue 01:17:58 PM 37.7125 -84.4736 344° North 426 490 33,000 49 Climbing Indianapolis Center
Tue 01:18:59 PM 37.8233 -84.5233 340° North 422 486 33,000 -146 Level Indianapolis Center
Tue 01:20:01 PM 37.9331 -84.5703 341° North 421 484 32,700 -484 Descending Indianapolis Center
Tue 01:21:03 PM 38.0619 -84.6242 342° North 416 479 32,000 -339 Descending Indianapolis Center
Tue 01:22:05 PM 38.1719 -84.6703 342° North 416 479 32,000  Level Indianapolis Center
Tue 01:23:07 PM 38.2803 -84.7167 341° North 415 478 32,000  Level Indianapolis Center
Tue 01:24:09 PM 38.3900 -84.7611 342° North 413 475 32,000  Level Indianapolis Center
Tue 01:25:11 PM 38.4986 -84.8033 343° North 411 473 32,000  Level Indianapolis Center
Tue 01:26:13 PM 38.6047 -84.8506 341° North 408 470 32,000  Level Indianapolis Center
Tue 01:27:15 PM 38.7203 -84.9017 341° North 409 471 32,000  Level Indianapolis Center
Tue 01:28:17 PM 38.8264 -84.9469 342° North 409 471 32,000  Level Indianapolis Center
Tue 01:29:19 PM 38.9325 -84.9917 342° North 407 468 32,000 -290 Level Indianapolis Center
Tue 01:30:21 PM 39.0597 -85.0475 341° North 406 467 31,400 -726 Descending Indianapolis Center
Tue 01:31:23 PM 39.1656 -85.0919 342° North 406 467 30,500 -919 Descending Indianapolis Center
Tue 01:32:25 PM 39.2675 -85.1367 341° North 397 457 29,500 -968 Descending Indianapolis Center
Tue 01:33:27 PM 39.3700 -85.1806 342° North 393 452 28,500 -726 Descending Indianapolis Center
Tue 01:34:29 PM 39.4739 -85.2264 341° North 393 452 28,000 -244 Descending Indianapolis Center
Tue 01:35:30 PM 39.5778 -85.2717 341° North 393 452 28,000  Level Indianapolis Center
Tue 01:36:32 PM 39.7017 -85.3258 341° North 393 452 28,000  Level Indianapolis Center
Tue 01:37:34 PM 39.8039 -85.3711 341° North 393 452 28,000 -145 Level Indianapolis Center
Tue 01:38:36 PM 39.9067 -85.4169 341° North 393 452 27,700 -629 Descending Indianapolis Center
Tue 01:39:38 PM 40.0086 -85.4625 341° North 393 452 26,700 -823 Descending Indianapolis Center
Tue 01:40:40 PM 40.1111 -85.5086 341° North 393 452 26,000 -339 Descending Indianapolis Center
Tue 01:41:42 PM 40.2122 -85.5531 341° North 391 450 26,000  Level Indianapolis Center
Tue 01:42:43 PM 40.3322 -85.6067 341° North 385 443 26,000 -347 Level Indianapolis Center
Tue 01:43:43 PM 40.4331 -85.6494 342° North 383 441 25,300 -787 Descending Chicago Center
Tue 01:44:45 PM 40.5322 -85.6931 342° North 382 440 24,400 -629 Descending Chicago Center
Tue 01:45:47 PM 40.6342 -85.7286 345° North 381 438 24,000 -629 Descending Chicago Center
Tue 01:46:49 PM 40.7247 -85.8086 326° Northwest 365 420 23,100 -919 Descending Chicago Center
Tue 01:47:51 PM 40.7753 -85.9203 301° West 355 409 22,100 -629 Descending Chicago Center
Tue 01:48:53 PM 40.8283 -86.0294 303° West 354 407 21,800 -629 Descending Chicago Center
Tue 01:49:55 PM 40.8800 -86.1389 302° West 353 406 20,800 -871 Descending Chicago Center
Tue 01:50:57 PM 40.9286 -86.2456 301° West 344 396 20,000 -387 Descending Chicago Center
Tue 01:51:59 PM 40.9786 -86.3500 302° West 338 389 20,000  Level Chicago Center
Tue 01:53:01 PM 41.0369 -86.4789 301° West 339 390 20,000  Level Chicago Center
Tue 01:54:03 PM 41.0872 -86.5850 302° West 339 390 20,000 -435 Level Chicago Center
Tue 01:55:05 PM 41.1361 -86.6922 301° West 339 390 19,100 -1,790 Descending Chicago Center
Tue 01:56:07 PM 41.1894 -86.8056 302° West 336 387 16,300 -2,516 Descending Chicago Center
Tue 01:57:09 PM 41.2364 -86.9075 302° West 325 374 13,900 -2,032 Descending Chicago Center
Tue 01:58:11 PM 41.2872 -87.0181 301° West 327 376 12,100 -1,452 Descending Chicago Center
Tue 01:59:13 PM 41.3328 -87.1203 301° West 323 372 10,900 -581 Descending Chicago Center
Tue 02:00:15 PM 41.3872 -87.2208 306° West 314 361 10,900 -97 Level Chicago Center
Tue 02:01:17 PM 41.4525 -87.2967 319° Northwest 311 358 10,700 -387 Descending Chicago Center
Tue 02:02:19 PM 41.5214 -87.3769 319° Northwest 309 356 10,100 -387 Descending Chicago Center
Tue 02:03:21 PM 41.5931 -87.4383 327° Northwest 307 353 9,900 -97 Descending Chicago Center
Tue 02:04:23 PM 41.6678 -87.5089 325° Northwest 307 353 9,900  Level Chicago Center
Tue 02:05:25 PM 41.7311 -87.5842 318° Northwest 307 353 9,900  Level Chicago Center
Tue 02:06:27 PM 41.8025 -87.6617 321° Northwest 307 353 9,900  Level Chicago Center
Tue 02:07:29 PM 41.8392 -87.7631 296° West 309 356 9,900 -194 Level Chicago Center
Tue 02:08:31 PM 41.8581 -87.8628 284° West 276 318 9,500 -919 Descending Chicago Center
Tue 02:09:33 PM 41.8778 -87.9567 286° West 249 287 8,000 -1,268 Descending Chicago Center
Tue 02:10:34 PM 41.8839 -88.0383 276° West 221 254 6,900 -1,512 Descending Chicago Center
Tue 02:11:36 PM 41.8839 -88.1225 270° West 213 245 4,900 -1,306 Descending Chicago Center
Tue 02:12:38 PM 41.9261 -88.1461 337° Northwest 174 200 4,200 -726 Descending Chicago Center
Tue 02:13:40 PM 41.9558 -88.1075 44° Northeast 164 189 3,400 -823 Descending Chicago Center
Tue 02:14:42 PM 41.9642 -88.0447 80° East 170 196 2,500 -871 Descending Chicago Center
Tue 02:15:44 PM 41.9644 -87.9836 90° East 166 191 1,600 -823 Descending Chicago Center
Tue 02:16:46 PM 41.9650 -87.9400 89° East 145 167 800 -774 Descending Chicago Center

Login

Don't have an account? Register now (free) for customized features, flight alerts, and more!